createdAt,value
2022-07-29T00:00:38.230Z,0.00
2022-07-29T00:01:38.223Z,0.00
2022-07-29T00:02:38.247Z,0.00
2022-07-29T00:03:38.244Z,0.00
2022-07-29T00:04:38.219Z,0.00
2022-07-29T00:05:38.189Z,0.00
2022-07-29T00:06:38.197Z,0.00
2022-07-29T00:07:38.165Z,0.00
2022-07-29T00:08:38.162Z,0.00
2022-07-29T00:09:41.999Z,0.00
2022-07-29T00:10:39.151Z,0.00
2022-07-29T00:11:38.139Z,0.00
2022-07-29T00:12:38.147Z,0.00
2022-07-29T00:13:38.126Z,0.00
2022-07-29T00:14:38.112Z,0.00
2022-07-29T00:15:38.113Z,0.00
2022-07-29T00:16:38.141Z,0.00
2022-07-29T00:17:38.121Z,0.00
2022-07-29T00:18:38.104Z,0.00
2022-07-29T00:19:38.089Z,0.00
2022-07-29T00:20:38.088Z,0.00
2022-07-29T00:21:38.064Z,0.00
2022-07-29T00:22:39.075Z,0.00
2022-07-29T00:23:38.076Z,0.00
2022-07-29T00:24:38.056Z,0.00
2022-07-29T00:25:38.051Z,0.00
2022-07-29T00:26:38.043Z,0.00
2022-07-29T00:27:38.050Z,0.00
2022-07-29T00:28:38.035Z,0.00
2022-07-29T00:29:38.029Z,0.00
2022-07-29T00:30:38.021Z,0.00
2022-07-29T00:31:38.079Z,0.00
2022-07-29T00:32:38.010Z,0.00
2022-07-29T00:33:38.028Z,0.00
2022-07-29T00:34:37.991Z,0.00
2022-07-29T00:35:37.985Z,0.00
2022-07-29T00:36:37.980Z,0.00
2022-07-29T00:37:37.975Z,0.00
2022-07-29T00:38:37.971Z,0.00
2022-07-29T00:39:37.959Z,0.00
2022-07-29T00:40:37.953Z,0.00
2022-07-29T00:41:38.927Z,0.00
2022-07-29T00:42:37.934Z,0.00
2022-07-29T00:43:37.934Z,0.00
2022-07-29T00:44:37.922Z,0.00
2022-07-29T00:45:37.921Z,0.00
2022-07-29T00:46:37.986Z,0.00
2022-07-29T00:47:37.890Z,0.00
2022-07-29T00:48:37.942Z,0.00
2022-07-29T00:49:37.895Z,0.00
2022-07-29T00:50:37.872Z,0.00
2022-07-29T00:51:37.875Z,0.00
2022-07-29T00:52:37.870Z,0.00
2022-07-29T00:53:37.869Z,0.00
2022-07-29T00:54:44.070Z,0.00
2022-07-29T00:55:38.860Z,0.00
2022-07-29T00:56:37.849Z,0.00
2022-07-29T00:57:37.837Z,0.00
2022-07-29T00:58:37.847Z,0.00
2022-07-29T00:59:37.829Z,0.00
2022-07-29T01:00:37.861Z,0.00
2022-07-29T01:01:37.893Z,0.00
2022-07-29T01:02:38.048Z,0.00
2022-07-29T01:03:37.800Z,0.00
2022-07-29T01:04:37.791Z,0.00
2022-07-29T01:05:50.841Z,0.00
2022-07-29T01:06:38.770Z,0.00
2022-07-29T01:07:37.757Z,0.00
2022-07-29T01:08:37.770Z,0.00
2022-07-29T01:09:46.391Z,0.00
2022-07-29T01:10:38.745Z,0.00
2022-07-29T01:11:37.741Z,0.00
2022-07-29T01:12:37.725Z,0.00
2022-07-29T01:13:37.733Z,0.00
2022-07-29T01:14:38.337Z,0.00
2022-07-29T01:15:37.717Z,0.00
2022-07-29T01:16:38.772Z,0.00
2022-07-29T01:17:37.705Z,0.00
2022-07-29T01:18:37.697Z,0.00
2022-07-29T01:19:37.693Z,0.00
2022-07-29T01:20:37.689Z,0.00
2022-07-29T01:21:37.686Z,0.00
2022-07-29T01:22:37.665Z,0.00
2022-07-29T01:23:37.670Z,0.00
2022-07-29T01:24:37.673Z,0.00
2022-07-29T01:25:37.661Z,0.00
2022-07-29T01:26:37.644Z,0.00
2022-07-29T01:27:37.642Z,0.00
2022-07-29T01:28:37.633Z,0.00
2022-07-29T01:29:40.307Z,0.00
2022-07-29T01:30:37.632Z,0.00
2022-07-29T01:31:40.281Z,0.00
2022-07-29T01:32:38.586Z,0.00
2022-07-29T01:33:37.601Z,0.00
2022-07-29T01:34:37.587Z,0.00
2022-07-29T01:35:37.585Z,0.00
2022-07-29T01:36:37.577Z,0.00
2022-07-29T01:37:37.568Z,0.00
2022-07-29T01:38:37.560Z,0.00
2022-07-29T01:39:37.556Z,0.00
2022-07-29T01:40:37.548Z,0.00
2022-07-29T01:41:37.545Z,0.00
2022-07-29T01:42:37.542Z,0.00
2022-07-29T01:43:37.531Z,0.00
2022-07-29T01:44:37.544Z,0.00
2022-07-29T01:45:37.520Z,0.00
2022-07-29T01:46:37.617Z,0.00
2022-07-29T01:47:37.515Z,0.00
2022-07-29T01:48:37.554Z,0.00
2022-07-29T01:49:37.484Z,0.00
2022-07-29T01:50:37.480Z,0.00
2022-07-29T01:51:37.476Z,0.00
2022-07-29T01:52:37.468Z,0.00
2022-07-29T01:53:38.133Z,0.00
2022-07-29T01:54:37.450Z,0.00
2022-07-29T01:55:37.451Z,0.00
2022-07-29T01:56:37.475Z,0.00
2022-07-29T01:57:37.431Z,0.00
2022-07-29T01:58:37.419Z,0.00
2022-07-29T01:59:37.422Z,0.00
2022-07-29T02:00:37.403Z,0.00
2022-07-29T02:01:37.465Z,0.00
2022-07-29T02:02:37.417Z,0.00
2022-07-29T02:03:37.390Z,0.00
2022-07-29T02:04:37.423Z,0.00
2022-07-29T02:05:37.378Z,0.00
2022-07-29T02:06:37.374Z,0.00
2022-07-29T02:07:37.370Z,0.00
2022-07-29T02:08:37.355Z,0.00
2022-07-29T02:09:37.346Z,0.00
2022-07-29T02:10:38.349Z,0.00
2022-07-29T02:11:37.355Z,0.00
2022-07-29T02:12:37.326Z,0.00
2022-07-29T02:13:37.308Z,0.00
2022-07-29T02:14:38.317Z,0.00
2022-07-29T02:15:37.310Z,0.00
2022-07-29T02:16:37.471Z,0.00
2022-07-29T02:17:39.874Z,0.00
2022-07-29T02:18:37.291Z,0.00
2022-07-29T02:19:37.289Z,0.00
2022-07-29T02:20:37.267Z,0.00
2022-07-29T02:21:37.366Z,0.00
2022-07-29T02:22:37.286Z,0.00
2022-07-29T02:23:50.444Z,0.00
2022-07-29T02:24:38.241Z,0.00
2022-07-29T02:25:38.361Z,0.00
2022-07-29T02:26:37.238Z,0.00
2022-07-29T02:27:37.237Z,0.00
2022-07-29T02:28:37.222Z,0.00
2022-07-29T02:29:37.218Z,0.00
2022-07-29T02:30:37.206Z,0.00
2022-07-29T02:31:37.275Z,0.00
2022-07-29T02:32:37.213Z,0.00
2022-07-29T02:33:37.185Z,0.00
2022-07-29T02:34:37.178Z,0.00
2022-07-29T02:35:37.179Z,0.00
2022-07-29T02:36:37.171Z,0.00
2022-07-29T02:37:37.177Z,0.00
2022-07-29T02:38:37.163Z,0.00
2022-07-29T02:39:37.147Z,0.00
2022-07-29T02:40:37.134Z,0.00
2022-07-29T02:41:37.129Z,0.00
2022-07-29T02:42:37.109Z,0.00
2022-07-29T02:43:37.127Z,0.00
2022-07-29T02:44:37.113Z,0.00
2022-07-29T02:45:37.098Z,0.00
2022-07-29T02:46:37.174Z,0.00
2022-07-29T02:47:41.818Z,0.00
2022-07-29T02:48:38.148Z,0.00
2022-07-29T02:49:37.083Z,0.00
2022-07-29T02:50:37.077Z,0.00
2022-07-29T02:51:41.126Z,0.00
2022-07-29T02:52:38.053Z,0.00
2022-07-29T02:53:37.061Z,0.00
2022-07-29T02:54:37.043Z,0.00
2022-07-29T02:55:37.021Z,0.00
2022-07-29T02:56:37.030Z,0.00
2022-07-29T02:57:54.159Z,0.00
2022-07-29T02:58:38.025Z,0.00
2022-07-29T02:59:37.009Z,0.00
2022-07-29T03:00:37.008Z,0.00
2022-07-29T03:01:37.025Z,0.00
2022-07-29T03:02:36.994Z,0.00
2022-07-29T03:03:36.985Z,0.00
2022-07-29T03:04:37.147Z,0.00
2022-07-29T03:05:36.974Z,0.00
2022-07-29T03:06:39.038Z,0.00
2022-07-29T03:07:36.957Z,0.00
2022-07-29T03:08:36.955Z,0.00
2022-07-29T03:09:36.954Z,0.00
2022-07-29T03:10:36.937Z,0.00
2022-07-29T03:11:41.432Z,0.00
2022-07-29T03:12:37.951Z,0.00
2022-07-29T03:13:36.913Z,0.00
2022-07-29T03:14:36.907Z,0.00
2022-07-29T03:15:36.999Z,0.00
2022-07-29T03:16:41.024Z,0.00
2022-07-29T03:17:37.893Z,0.00
2022-07-29T03:18:36.872Z,0.00
2022-07-29T03:19:36.873Z,0.00
2022-07-29T03:20:36.872Z,0.00
2022-07-29T03:21:36.857Z,0.00
2022-07-29T03:22:36.850Z,0.00
2022-07-29T03:23:37.029Z,0.00
2022-07-29T03:24:36.840Z,0.00
2022-07-29T03:25:36.834Z,0.00
2022-07-29T03:26:36.838Z,0.00
2022-07-29T03:27:36.813Z,0.00
2022-07-29T03:28:36.829Z,0.00
2022-07-29T03:29:36.833Z,0.00
2022-07-29T03:30:36.799Z,0.00
2022-07-29T03:31:36.837Z,0.00
2022-07-29T03:32:36.778Z,0.00
2022-07-29T03:33:36.776Z,0.00
2022-07-29T03:34:36.767Z,0.00
2022-07-29T03:35:36.768Z,0.00
2022-07-29T03:36:36.756Z,0.00
2022-07-29T03:37:36.753Z,0.00
2022-07-29T03:38:36.738Z,0.00
2022-07-29T03:39:36.733Z,0.00
2022-07-29T03:40:36.736Z,0.00
2022-07-29T03:41:36.723Z,0.00
2022-07-29T03:42:36.726Z,0.00
2022-07-29T03:43:36.706Z,0.00
2022-07-29T03:44:36.699Z,0.00
2022-07-29T03:45:36.697Z,0.00
2022-07-29T03:46:36.783Z,0.00
2022-07-29T03:47:49.844Z,0.00
2022-07-29T03:48:37.727Z,0.00
2022-07-29T03:49:36.757Z,0.00
2022-07-29T03:50:36.655Z,0.00
2022-07-29T03:51:36.645Z,0.00
2022-07-29T03:52:36.648Z,0.00
2022-07-29T03:53:36.653Z,0.00
2022-07-29T03:54:36.632Z,0.00
2022-07-29T03:55:36.620Z,0.00
2022-07-29T03:56:36.620Z,0.00
2022-07-29T03:57:36.615Z,5.62
2022-07-29T03:58:36.613Z,5.62
2022-07-29T03:59:36.624Z,5.62
2022-07-29T04:00:36.590Z,5.62
2022-07-29T04:01:36.622Z,5.62
2022-07-29T04:02:36.608Z,5.62
2022-07-29T04:03:36.628Z,5.62
2022-07-29T04:04:36.578Z,5.62
2022-07-29T04:05:36.562Z,5.62
2022-07-29T04:06:36.549Z,11.25
2022-07-29T04:07:36.545Z,11.25
2022-07-29T04:08:36.537Z,11.25
2022-07-29T04:09:36.581Z,11.25
2022-07-29T04:10:36.528Z,11.25
2022-07-29T04:12:02.432Z,11.25
2022-07-29T04:12:37.517Z,11.25
2022-07-29T04:13:36.504Z,11.25
2022-07-29T04:14:36.496Z,11.25
2022-07-29T04:15:36.518Z,11.25
2022-07-29T04:16:36.491Z,16.88
2022-07-29T04:17:36.485Z,16.88
2022-07-29T04:18:36.461Z,16.88
2022-07-29T04:19:36.482Z,16.88
2022-07-29T04:20:36.464Z,16.88
2022-07-29T04:21:36.457Z,16.88
2022-07-29T04:22:36.449Z,16.88
2022-07-29T04:23:36.441Z,16.88
2022-07-29T04:24:37.450Z,16.88
2022-07-29T04:25:36.426Z,22.50
2022-07-29T04:26:36.410Z,22.50
2022-07-29T04:27:36.410Z,22.50
2022-07-29T04:28:36.401Z,22.50
2022-07-29T04:29:36.394Z,22.50
2022-07-29T04:30:37.412Z,28.12
2022-07-29T04:31:36.515Z,28.12
2022-07-29T04:32:36.380Z,28.12
2022-07-29T04:33:36.365Z,28.12
2022-07-29T04:34:36.363Z,33.75
2022-07-29T04:35:38.219Z,33.75
2022-07-29T04:36:36.362Z,33.75
2022-07-29T04:37:36.342Z,33.75
2022-07-29T04:38:36.339Z,33.75
2022-07-29T04:39:36.332Z,33.75
2022-07-29T04:40:38.692Z,39.38
2022-07-29T04:41:36.329Z,39.38
2022-07-29T04:42:36.304Z,39.38
2022-07-29T04:43:37.317Z,39.38
2022-07-29T04:44:39.571Z,45.00
2022-07-29T04:45:37.285Z,45.00
2022-07-29T04:46:36.337Z,50.62
2022-07-29T04:47:36.282Z,50.62
2022-07-29T04:48:36.317Z,50.62
2022-07-29T04:49:36.265Z,50.62
2022-07-29T04:50:36.250Z,50.62
2022-07-29T04:51:36.261Z,50.62
2022-07-29T04:52:36.249Z,50.62
2022-07-29T04:53:36.238Z,50.62
2022-07-29T04:54:36.231Z,50.62
2022-07-29T04:55:36.225Z,50.62
2022-07-29T04:56:36.225Z,50.62
2022-07-29T04:57:36.225Z,50.62
2022-07-29T04:58:36.231Z,50.62
2022-07-29T04:59:36.205Z,50.62
2022-07-29T05:00:36.192Z,50.62
2022-07-29T05:01:36.255Z,50.62
2022-07-29T05:02:36.208Z,50.62
2022-07-29T05:03:36.229Z,50.62
2022-07-29T05:04:36.149Z,50.62
2022-07-29T05:05:36.170Z,50.62
2022-07-29T05:06:36.146Z,50.62
2022-07-29T05:07:36.147Z,50.62
2022-07-29T05:08:36.177Z,50.62
2022-07-29T05:09:36.129Z,50.62
2022-07-29T05:10:36.117Z,50.62
2022-07-29T05:11:36.113Z,50.62
2022-07-29T05:12:36.113Z,50.62
2022-07-29T05:13:45.790Z,50.62
2022-07-29T05:14:37.089Z,50.62
2022-07-29T05:15:36.154Z,50.62
2022-07-29T05:16:36.080Z,50.62
2022-07-29T05:17:36.068Z,50.62
2022-07-29T05:18:36.065Z,50.62
2022-07-29T05:19:39.660Z,50.62
2022-07-29T05:20:36.048Z,45.00
2022-07-29T05:21:36.053Z,45.00
2022-07-29T05:22:36.041Z,45.00
2022-07-29T05:23:36.023Z,45.00
2022-07-29T05:24:36.040Z,45.00
2022-07-29T05:25:43.404Z,45.00
2022-07-29T05:26:36.014Z,45.00
2022-07-29T05:27:36.004Z,45.00
2022-07-29T05:28:36.047Z,45.00
2022-07-29T05:29:43.889Z,45.00
2022-07-29T05:30:36.003Z,39.38
2022-07-29T05:31:35.984Z,39.38
2022-07-29T05:32:35.968Z,39.38
2022-07-29T05:33:37.009Z,39.38
2022-07-29T05:34:37.007Z,39.38
2022-07-29T05:35:36.957Z,39.38
2022-07-29T05:36:35.943Z,39.38
2022-07-29T05:37:35.941Z,39.38
2022-07-29T05:38:35.933Z,39.38
2022-07-29T05:39:47.133Z,45.00
2022-07-29T05:40:36.941Z,45.00
2022-07-29T05:41:35.924Z,45.00
2022-07-29T05:42:35.904Z,45.00
2022-07-29T05:43:35.908Z,45.00
2022-07-29T05:44:35.913Z,50.62
2022-07-29T05:45:35.882Z,50.62
2022-07-29T05:46:37.069Z,50.62
2022-07-29T05:47:35.877Z,56.25
2022-07-29T05:48:35.852Z,56.25
2022-07-29T05:49:35.910Z,56.25
2022-07-29T05:50:35.864Z,61.88
2022-07-29T05:51:36.836Z,61.88
2022-07-29T05:52:35.849Z,67.50
2022-07-29T05:53:35.838Z,67.50
2022-07-29T05:54:35.829Z,67.50
2022-07-29T05:55:35.819Z,67.50
2022-07-29T05:56:35.816Z,67.50
2022-07-29T05:57:35.813Z,73.12
2022-07-29T05:58:35.807Z,73.12
2022-07-29T05:59:35.792Z,73.12
2022-07-29T06:00:35.798Z,78.75
2022-07-29T06:01:35.879Z,78.75
2022-07-29T06:02:35.763Z,78.75
2022-07-29T06:03:35.770Z,78.75
2022-07-29T06:04:35.809Z,78.75
2022-07-29T06:05:35.765Z,78.75
2022-07-29T06:06:35.737Z,78.75
2022-07-29T06:07:35.740Z,78.75
2022-07-29T06:08:35.729Z,78.75
2022-07-29T06:09:36.317Z,78.75
2022-07-29T06:10:36.722Z,73.12
2022-07-29T06:11:35.728Z,67.50
2022-07-29T06:12:35.709Z,61.88
2022-07-29T06:13:35.715Z,61.88
2022-07-29T06:14:35.684Z,56.25
2022-07-29T06:15:35.717Z,56.25
2022-07-29T06:16:35.783Z,56.25
2022-07-29T06:17:35.671Z,56.25
2022-07-29T06:18:35.672Z,56.25
2022-07-29T06:19:35.643Z,56.25
2022-07-29T06:20:35.649Z,61.88
2022-07-29T06:21:35.665Z,61.88
2022-07-29T06:22:35.633Z,61.88
2022-07-29T06:23:35.629Z,67.50
2022-07-29T06:24:35.633Z,67.50
2022-07-29T06:25:35.617Z,73.12
2022-07-29T06:26:39.762Z,73.12
2022-07-29T06:27:35.608Z,78.75
2022-07-29T06:28:35.596Z,78.75
2022-07-29T06:29:35.588Z,84.38
2022-07-29T06:30:35.633Z,84.38
2022-07-29T06:31:35.600Z,84.38
2022-07-29T06:32:38.913Z,90.00
2022-07-29T06:33:35.569Z,95.62
2022-07-29T06:34:35.560Z,101.25
2022-07-29T06:35:39.166Z,106.88
2022-07-29T06:36:36.558Z,112.50
2022-07-29T06:37:35.541Z,118.12
2022-07-29T06:38:40.335Z,123.75
2022-07-29T06:39:36.526Z,129.38
2022-07-29T06:40:35.520Z,135.00
2022-07-29T06:41:35.525Z,140.62
2022-07-29T06:42:35.509Z,146.25
2022-07-29T06:43:36.495Z,151.88
2022-07-29T06:44:36.489Z,151.88
2022-07-29T06:45:35.516Z,157.50
2022-07-29T06:46:35.545Z,151.88
2022-07-29T06:47:35.491Z,151.88
2022-07-29T06:48:35.462Z,146.25
2022-07-29T06:49:35.463Z,140.62
2022-07-29T06:50:35.451Z,135.00
2022-07-29T06:51:35.448Z,129.38
2022-07-29T06:52:35.460Z,123.75
2022-07-29T06:53:35.430Z,123.75
2022-07-29T06:54:35.423Z,118.12
2022-07-29T06:55:35.419Z,118.12
2022-07-29T06:56:39.635Z,112.50
2022-07-29T06:57:35.404Z,112.50
2022-07-29T06:58:35.416Z,106.88
2022-07-29T06:59:36.102Z,101.25
2022-07-29T07:00:36.456Z,95.62
2022-07-29T07:01:35.454Z,90.00
2022-07-29T07:02:35.453Z,84.38
2022-07-29T07:03:35.385Z,84.38
2022-07-29T07:04:35.363Z,84.38
2022-07-29T07:05:35.351Z,78.75
2022-07-29T07:06:35.376Z,78.75
2022-07-29T07:07:35.334Z,73.12
2022-07-29T07:08:35.332Z,73.12
2022-07-29T07:09:40.447Z,67.50
2022-07-29T07:10:37.321Z,67.50
2022-07-29T07:11:35.310Z,61.88
2022-07-29T07:12:35.302Z,61.88
2022-07-29T07:13:35.295Z,61.88
2022-07-29T07:14:35.299Z,56.25
2022-07-29T07:15:39.767Z,56.25
2022-07-29T07:16:35.302Z,56.25
2022-07-29T07:17:35.275Z,50.62
2022-07-29T07:18:35.261Z,50.62
2022-07-29T07:19:36.262Z,50.62
2022-07-29T07:20:35.251Z,50.62
2022-07-29T07:21:35.243Z,45.00
2022-07-29T07:22:38.751Z,45.00
2022-07-29T07:23:36.230Z,45.00
2022-07-29T07:24:35.242Z,45.00
2022-07-29T07:25:35.210Z,45.00
2022-07-29T07:26:35.207Z,45.00
2022-07-29T07:27:35.199Z,45.00
2022-07-29T07:28:35.183Z,45.00
2022-07-29T07:29:35.197Z,50.62
2022-07-29T07:30:35.179Z,50.62
2022-07-29T07:31:35.227Z,50.62
2022-07-29T07:32:35.171Z,50.62
2022-07-29T07:33:35.157Z,50.62
2022-07-29T07:34:35.152Z,56.25
2022-07-29T07:35:35.176Z,56.25
2022-07-29T07:36:35.151Z,56.25
2022-07-29T07:37:35.128Z,56.25
2022-07-29T07:38:35.126Z,61.88
2022-07-29T07:39:35.119Z,61.88
2022-07-29T07:40:35.130Z,61.88
2022-07-29T07:41:36.112Z,67.50
2022-07-29T07:42:35.101Z,67.50
2022-07-29T07:43:35.086Z,67.50
2022-07-29T07:44:51.327Z,73.12
2022-07-29T07:45:37.102Z,73.12
2022-07-29T07:46:35.078Z,73.12
2022-07-29T07:47:35.058Z,78.75
2022-07-29T07:48:35.070Z,78.75
2022-07-29T07:49:35.042Z,78.75
2022-07-29T07:50:35.030Z,78.75
2022-07-29T07:51:35.059Z,78.75
2022-07-29T07:52:35.019Z,78.75
2022-07-29T07:53:35.028Z,78.75
2022-07-29T07:54:35.023Z,78.75
2022-07-29T07:55:59.985Z,78.75
2022-07-29T07:56:37.007Z,78.75
2022-07-29T07:57:35.004Z,78.75
2022-07-29T07:58:34.983Z,78.75
2022-07-29T07:59:34.979Z,78.75
2022-07-29T08:00:34.966Z,78.75
2022-07-29T08:01:55.668Z,78.75
2022-07-29T08:02:36.019Z,78.75
2022-07-29T08:03:34.955Z,78.75
2022-07-29T08:04:34.951Z,78.75
2022-07-29T08:05:34.941Z,84.38
2022-07-29T08:06:34.941Z,84.38
2022-07-29T08:07:34.933Z,90.00
2022-07-29T08:08:34.918Z,95.62
2022-07-29T08:09:34.915Z,95.62
2022-07-29T08:10:34.907Z,101.25
2022-07-29T08:11:37.680Z,106.88
2022-07-29T08:12:34.886Z,112.50
2022-07-29T08:13:34.889Z,123.75
2022-07-29T08:14:34.879Z,129.38
2022-07-29T08:15:34.870Z,135.00
2022-07-29T08:16:34.898Z,140.62
2022-07-29T08:17:35.435Z,146.25
2022-07-29T08:18:34.851Z,157.50
2022-07-29T08:19:34.849Z,163.12
2022-07-29T08:20:34.834Z,174.38
2022-07-29T08:21:34.833Z,174.38
2022-07-29T08:22:34.842Z,185.62
2022-07-29T08:23:46.893Z,191.25
2022-07-29T08:24:35.820Z,202.50
2022-07-29T08:25:34.801Z,208.12
2022-07-29T08:26:34.798Z,219.38
2022-07-29T08:27:43.477Z,230.62
2022-07-29T08:28:36.795Z,241.88
2022-07-29T08:29:34.786Z,253.12
2022-07-29T08:30:34.775Z,258.75
2022-07-29T08:31:34.892Z,264.38
2022-07-29T08:32:53.213Z,275.62
2022-07-29T08:33:36.754Z,281.25
2022-07-29T08:34:34.762Z,292.50
2022-07-29T08:35:35.698Z,303.75
2022-07-29T08:36:35.746Z,315.00
2022-07-29T08:37:34.724Z,331.88
2022-07-29T08:38:34.719Z,354.38
2022-07-29T08:39:34.734Z,365.62
2022-07-29T08:40:34.702Z,382.50
2022-07-29T08:41:34.696Z,399.38
2022-07-29T08:42:34.683Z,416.25
2022-07-29T08:43:34.682Z,438.75
2022-07-29T08:44:34.666Z,461.25
2022-07-29T08:45:34.796Z,489.38
2022-07-29T08:46:34.662Z,568.12
2022-07-29T08:47:34.666Z,877.50
2022-07-29T08:48:34.633Z,652.50
2022-07-29T08:49:34.645Z,736.88
2022-07-29T08:50:34.655Z,630.00
2022-07-29T08:51:34.635Z,894.38
2022-07-29T08:52:35.618Z,601.88
2022-07-29T08:53:34.610Z,545.62
2022-07-29T08:54:34.610Z,568.12
2022-07-29T08:55:34.606Z,748.12
2022-07-29T08:56:34.614Z,1125.00
2022-07-29T08:57:34.585Z,675.00
2022-07-29T08:58:37.171Z,438.75
2022-07-29T08:59:34.566Z,382.50
2022-07-29T09:00:34.581Z,365.62
2022-07-29T09:01:36.245Z,365.62
2022-07-29T09:02:35.553Z,360.00
2022-07-29T09:03:34.600Z,365.62
2022-07-29T09:04:34.539Z,365.62
2022-07-29T09:05:39.640Z,360.00
2022-07-29T09:06:36.537Z,348.75
2022-07-29T09:07:34.855Z,343.12
2022-07-29T09:08:34.534Z,348.75
2022-07-29T09:09:34.506Z,343.12
2022-07-29T09:10:34.498Z,348.75
2022-07-29T09:11:34.493Z,360.00
2022-07-29T09:12:37.828Z,376.88
2022-07-29T09:13:35.533Z,393.75
2022-07-29T09:14:34.481Z,416.25
2022-07-29T09:15:34.466Z,427.50
2022-07-29T09:16:52.320Z,466.88
2022-07-29T09:17:36.475Z,438.75
2022-07-29T09:18:34.459Z,450.00
2022-07-29T09:19:34.453Z,523.12
2022-07-29T09:20:34.441Z,1068.75
2022-07-29T09:21:34.459Z,506.25
2022-07-29T09:22:36.723Z,450.00
2022-07-29T09:23:35.426Z,410.62
2022-07-29T09:24:34.418Z,410.62
2022-07-29T09:25:34.401Z,421.88
2022-07-29T09:26:34.398Z,444.38
2022-07-29T09:27:34.385Z,472.50
2022-07-29T09:28:34.390Z,517.50
2022-07-29T09:29:36.296Z,500.62
2022-07-29T09:30:35.349Z,489.38
2022-07-29T09:31:35.441Z,483.75
2022-07-29T09:32:34.351Z,489.38
2022-07-29T09:33:34.354Z,781.88
2022-07-29T09:34:34.338Z,613.12
2022-07-29T09:35:34.366Z,573.75
2022-07-29T09:36:34.338Z,545.62
2022-07-29T09:37:34.306Z,483.75
2022-07-29T09:38:34.314Z,461.25
2022-07-29T09:39:34.304Z,461.25
2022-07-29T09:40:34.294Z,483.75
2022-07-29T09:41:34.293Z,495.00
2022-07-29T09:42:34.282Z,517.50
2022-07-29T09:43:34.289Z,663.75
2022-07-29T09:44:34.281Z,686.25
2022-07-29T09:45:34.262Z,1248.75
2022-07-29T09:46:34.296Z,736.88
2022-07-29T09:47:34.251Z,500.62
2022-07-29T09:48:34.233Z,466.88
2022-07-29T09:49:34.237Z,500.62
2022-07-29T09:50:34.233Z,590.62
2022-07-29T09:51:38.617Z,1760.62
2022-07-29T09:52:34.222Z,1794.38
2022-07-29T09:53:34.217Z,1636.88
2022-07-29T09:54:34.207Z,1490.62
2022-07-29T09:55:34.198Z,759.38
2022-07-29T09:56:34.189Z,731.25
2022-07-29T09:57:34.210Z,984.38
2022-07-29T09:58:34.182Z,691.88
2022-07-29T09:59:34.185Z,658.12
2022-07-29T10:00:34.237Z,590.62
2022-07-29T10:01:34.162Z,585.00
2022-07-29T10:02:34.166Z,601.88
2022-07-29T10:03:34.199Z,635.62
2022-07-29T10:04:34.142Z,646.88
2022-07-29T10:05:36.783Z,601.88
2022-07-29T10:06:34.117Z,613.12
2022-07-29T10:07:34.117Z,607.50
2022-07-29T10:08:34.121Z,691.88
2022-07-29T10:09:34.114Z,652.50
2022-07-29T10:10:34.095Z,714.38
2022-07-29T10:11:35.487Z,691.88
2022-07-29T10:12:35.094Z,736.88
2022-07-29T10:13:34.084Z,832.50
2022-07-29T10:14:34.075Z,843.75
2022-07-29T10:15:34.067Z,1001.25
2022-07-29T10:16:34.132Z,1501.88
2022-07-29T10:17:34.074Z,973.12
2022-07-29T10:18:34.057Z,1423.12
2022-07-29T10:19:34.052Z,1310.62
2022-07-29T10:20:34.049Z,1451.25
2022-07-29T10:21:36.224Z,956.25
2022-07-29T10:22:52.494Z,1518.75
2022-07-29T10:23:46.437Z,1389.38
2022-07-29T10:24:35.022Z,1383.75
2022-07-29T10:25:34.027Z,871.88
2022-07-29T10:26:34.009Z,1316.25
2022-07-29T10:27:34.009Z,1366.88
2022-07-29T10:28:34.006Z,1445.62
2022-07-29T10:29:33.989Z,1220.62
2022-07-29T10:30:34.019Z,973.12
2022-07-29T10:31:34.057Z,911.25
2022-07-29T10:32:33.976Z,1051.88
2022-07-29T10:33:33.965Z,1192.50
2022-07-29T10:34:33.962Z,1507.50
2022-07-29T10:35:33.949Z,1068.75
2022-07-29T10:36:33.944Z,866.25
2022-07-29T10:37:35.376Z,658.12
2022-07-29T10:38:33.946Z,624.38
2022-07-29T10:39:41.610Z,613.12
2022-07-29T10:40:35.791Z,607.50
2022-07-29T10:41:44.397Z,618.75
2022-07-29T10:42:34.936Z,641.25
2022-07-29T10:43:33.897Z,691.88
2022-07-29T10:44:33.907Z,748.12
2022-07-29T10:45:33.894Z,776.25
2022-07-29T10:46:33.937Z,765.00
2022-07-29T10:47:35.347Z,877.50
2022-07-29T10:48:33.881Z,843.75
2022-07-29T10:49:33.932Z,1186.88
2022-07-29T10:50:33.850Z,995.62
2022-07-29T10:51:33.855Z,911.25
2022-07-29T10:52:33.837Z,1006.88
2022-07-29T10:53:34.013Z,1046.25
2022-07-29T10:54:33.850Z,866.25
2022-07-29T10:55:33.827Z,967.50
2022-07-29T10:56:33.813Z,1333.12
2022-07-29T10:57:53.072Z,1248.75
2022-07-29T10:58:34.823Z,961.88
2022-07-29T10:59:36.297Z,1012.50
2022-07-29T11:00:33.798Z,1113.75
2022-07-29T11:01:37.315Z,922.50
2022-07-29T11:02:46.535Z,995.62
2022-07-29T11:03:34.818Z,866.25
2022-07-29T11:04:33.777Z,1023.75
2022-07-29T11:05:40.740Z,860.62
2022-07-29T11:06:33.769Z,804.38
2022-07-29T11:07:46.110Z,686.25
2022-07-29T11:08:34.794Z,697.50
2022-07-29T11:09:37.763Z,736.88
2022-07-29T11:10:33.769Z,787.50
2022-07-29T11:11:33.728Z,905.62
2022-07-29T11:12:33.776Z,1305.00
2022-07-29T11:13:37.203Z,1091.25
2022-07-29T11:14:34.712Z,922.50
2022-07-29T11:15:33.728Z,911.25
2022-07-29T11:16:33.701Z,1029.38
2022-07-29T11:17:46.942Z,1501.88
2022-07-29T11:18:34.692Z,1040.62
2022-07-29T11:19:33.685Z,1074.38
2022-07-29T11:20:33.696Z,905.62
2022-07-29T11:21:48.865Z,995.62
2022-07-29T11:22:34.674Z,950.62
2022-07-29T11:23:34.725Z,945.00
2022-07-29T11:24:34.868Z,871.88
2022-07-29T11:25:43.035Z,866.25
2022-07-29T11:26:34.637Z,911.25
2022-07-29T11:27:33.636Z,871.88
2022-07-29T11:28:33.643Z,894.38
2022-07-29T11:29:33.632Z,905.62
2022-07-29T11:30:34.617Z,860.62
2022-07-29T11:31:33.620Z,832.50
2022-07-29T11:32:33.612Z,821.25
2022-07-29T11:33:54.774Z,804.38
2022-07-29T11:34:34.734Z,793.12
2022-07-29T11:35:38.500Z,770.62
2022-07-29T11:36:34.600Z,748.12
2022-07-29T11:37:34.584Z,742.50
2022-07-29T11:38:34.584Z,736.88
2022-07-29T11:39:36.717Z,714.38
2022-07-29T11:40:33.588Z,703.12
2022-07-29T11:41:33.592Z,714.38
2022-07-29T11:42:34.372Z,708.75
2022-07-29T11:43:33.547Z,691.88
2022-07-29T11:44:33.538Z,720.00
2022-07-29T11:45:41.580Z,736.88
2022-07-29T11:46:34.532Z,742.50
2022-07-29T11:47:38.275Z,748.12
2022-07-29T11:48:34.785Z,748.12
2022-07-29T11:49:33.572Z,742.50
2022-07-29T11:50:33.517Z,731.25
2022-07-29T11:51:33.507Z,708.75
2022-07-29T11:52:33.507Z,686.25
2022-07-29T11:53:33.494Z,675.00
2022-07-29T11:54:33.499Z,658.12
2022-07-29T11:55:34.505Z,646.88
2022-07-29T11:56:33.754Z,641.25
2022-07-29T11:57:37.211Z,652.50
2022-07-29T11:58:33.462Z,663.75
2022-07-29T11:59:34.853Z,646.88
2022-07-29T12:00:33.458Z,613.12
2022-07-29T12:01:33.446Z,601.88
2022-07-29T12:02:37.376Z,596.25
2022-07-29T12:03:35.792Z,601.88
2022-07-29T12:04:33.437Z,607.50
2022-07-29T12:05:36.942Z,630.00
2022-07-29T12:06:33.410Z,635.62
2022-07-29T12:07:34.696Z,652.50
2022-07-29T12:08:33.437Z,675.00
2022-07-29T12:09:40.336Z,686.25
2022-07-29T12:10:33.533Z,675.00
2022-07-29T12:11:33.406Z,663.75
2022-07-29T12:12:33.385Z,669.38
2022-07-29T12:13:37.690Z,646.88
2022-07-29T12:14:33.380Z,641.25
2022-07-29T12:15:45.928Z,658.12
2022-07-29T12:16:34.413Z,663.75
2022-07-29T12:17:33.365Z,669.38
2022-07-29T12:18:33.357Z,663.75
2022-07-29T12:19:33.349Z,641.25
2022-07-29T12:20:33.354Z,646.88
2022-07-29T12:21:33.333Z,658.12
2022-07-29T12:22:33.330Z,658.12
2022-07-29T12:23:34.325Z,652.50
2022-07-29T12:24:33.317Z,652.50
2022-07-29T12:25:33.854Z,658.12
2022-07-29T12:26:34.960Z,646.88
2022-07-29T12:27:33.306Z,646.88
2022-07-29T12:28:34.295Z,646.88
2022-07-29T12:29:34.844Z,646.88
2022-07-29T12:30:33.293Z,669.38
2022-07-29T12:31:42.106Z,652.50
2022-07-29T12:32:34.332Z,663.75
2022-07-29T12:33:33.266Z,613.12
2022-07-29T12:34:33.274Z,613.12
2022-07-29T12:35:33.310Z,596.25
2022-07-29T12:36:33.267Z,579.38
2022-07-29T12:37:41.394Z,562.50
2022-07-29T12:38:34.278Z,556.88
2022-07-29T12:39:33.251Z,562.50
2022-07-29T12:40:33.250Z,556.88
2022-07-29T12:41:33.243Z,562.50
2022-07-29T12:42:33.219Z,528.75
2022-07-29T12:43:33.213Z,517.50
2022-07-29T12:44:33.210Z,500.62
2022-07-29T12:45:33.206Z,478.12
2022-07-29T12:46:33.309Z,461.25
2022-07-29T12:47:33.185Z,444.38
2022-07-29T12:48:33.181Z,433.12
2022-07-29T12:49:38.160Z,433.12